sensor_id;sensor_type;location;lat;lon;timestamp;pressure;altitude;pressure_sealevel;temperature;humidity
3590;BME280;1809;48.470;9.226;2022-08-01T00:01:45;96932.00;;;19.40;100.00
3590;BME280;1809;48.470;9.226;2022-08-01T00:04:10;96938.84;;;19.37;100.00
3590;BME280;1809;48.470;9.226;2022-08-01T00:06:36;96933.16;;;19.26;100.00
3590;BME280;1809;48.470;9.226;2022-08-01T00:09:01;96928.06;;;19.25;100.00
3590;BME280;1809;48.470;9.226;2022-08-01T00:11:27;96938.03;;;19.21;100.00
3590;BME280;1809;48.470;9.226;2022-08-01T00:13:52;96935.69;;;19.07;100.00
3590;BME280;1809;48.470;9.226;2022-08-01T00:16:18;96940.34;;;18.95;100.00
3590;BME280;1809;48.470;9.226;2022-08-01T00:18:43;96939.44;;;18.91;100.00
3590;BME280;1809;48.470;9.226;2022-08-01T00:21:09;96946.59;;;18.83;100.00
3590;BME280;1809;48.470;9.226;2022-08-01T00:23:34;96937.97;;;18.81;100.00
3590;BME280;1809;48.470;9.226;2022-08-01T00:26:00;96939.69;;;18.86;100.00
3590;BME280;1809;48.470;9.226;2022-08-01T00:28:26;96937.97;;;18.81;100.00
3590;BME280;1809;48.470;9.226;2022-08-01T00:30:51;96944.66;;;18.71;100.00
3590;BME280;1809;48.470;9.226;2022-08-01T00:33:16;96949.38;;;18.74;100.00
3590;BME280;1809;48.470;9.226;2022-08-01T00:35:42;96947.59;;;18.66;100.00
3590;BME280;1809;48.470;9.226;2022-08-01T00:38:07;96952.22;;;18.66;100.00
3590;BME280;1809;48.470;9.226;2022-08-01T00:40:32;96947.50;;;18.63;100.00
3590;BME280;1809;48.470;9.226;2022-08-01T00:42:58;96945.25;;;18.65;100.00
3590;BME280;1809;48.470;9.226;2022-08-01T00:45:23;96947.38;;;18.59;100.00
3590;BME280;1809;48.470;9.226;2022-08-01T00:47:48;96947.94;;;18.53;100.00
3590;BME280;1809;48.470;9.226;2022-08-01T00:50:14;96944.78;;;18.51;100.00
3590;BME280;1809;48.470;9.226;2022-08-01T00:52:40;96947.25;;;18.56;100.00
3590;BME280;1809;48.470;9.226;2022-08-01T00:55:06;96943.66;;;18.52;100.00
3590;BME280;1809;48.470;9.226;2022-08-01T00:57:32;96946.81;;;18.54;100.00
3590;BME280;1809;48.470;9.226;2022-08-01T00:59:58;96945.69;;;18.55;100.00
3590;BME280;1809;48.470;9.226;2022-08-01T01:02:23;96952.69;;;18.56;100.00
3590;BME280;1809;48.470;9.226;2022-08-01T01:04:48;96947.94;;;18.53;100.00
3590;BME280;1809;48.470;9.226;2022-08-01T01:07:24;96943.84;;;18.47;100.00
3590;BME280;1809;48.470;9.226;2022-08-01T01:15:37;96950.28;;;18.30;100.00
3590;BME280;1809;48.470;9.226;2022-08-01T01:18:13;96958.16;;;18.23;100.00
3590;BME280;1809;48.470;9.226;2022-08-01T01:20:42;96949.13;;;18.19;100.00
3590;BME280;1809;48.470;9.226;2022-08-01T01:26:26;96964.91;;;18.05;100.00
3590;BME280;1809;48.470;9.226;2022-08-01T01:34:42;96963.44;;;17.95;100.00
3590;BME280;1809;48.470;9.226;2022-08-01T01:37:12;96963.88;;;17.97;100.00
3590;BME280;1809;48.470;9.226;2022-08-01T01:39:40;96960.50;;;18.00;100.00
3590;BME280;1809;48.470;9.226;2022-08-01T01:42:07;96966.56;;;17.97;100.00
3590;BME280;1809;48.470;9.226;2022-08-01T01:44:33;96965.88;;;17.88;100.00
3590;BME280;1809;48.470;9.226;2022-08-01T01:47:00;96971.16;;;17.85;100.00
3590;BME280;1809;48.470;9.226;2022-08-01T01:49:27;96964.84;;;17.81;100.00
3590;BME280;1809;48.470;9.226;2022-08-01T01:51:55;96961.22;;;17.77;100.00
3590;BME280;1809;48.470;9.226;2022-08-01T01:54:28;96973.97;;;17.76;100.00
3590;BME280;1809;48.470;9.226;2022-08-01T01:56:58;96972.59;;;17.70;100.00
3590;BME280;1809;48.470;9.226;2022-08-01T01:59:29;96972.16;;;17.68;100.00
3590;BME280;1809;48.470;9.226;2022-08-01T02:01:57;96970.78;;;17.62;100.00
3590;BME280;1809;48.470;9.226;2022-08-01T02:04:24;96972.09;;;17.56;100.00
3590;BME280;1809;48.470;9.226;2022-08-01T02:06:51;96964.88;;;17.60;100.00
3590;BME280;1809;48.470;9.226;2022-08-01T02:09:20;96971.59;;;17.54;100.00
3590;BME280;1809;48.470;9.226;2022-08-01T02:11:47;96970.16;;;17.56;100.00
3590;BME280;1809;48.470;9.226;2022-08-01T02:14:15;96966.69;;;17.56;100.00
3590;BME280;1809;48.470;9.226;2022-08-01T02:16:45;96965.38;;;17.53;100.00
3590;BME280;1809;48.470;9.226;2022-08-01T02:19:12;96968.44;;;17.52;100.00
3590;BME280;1809;48.470;9.226;2022-08-01T02:24:13;96972.13;;;17.47;100.00
3590;BME280;1809;48.470;9.226;2022-08-01T02:26:42;96975.19;;;17.46;100.00
3590;BME280;1809;48.470;9.226;2022-08-01T02:29:11;96976.75;;;17.47;100.00
3590;BME280;1809;48.470;9.226;2022-08-01T02:31:40;96969.09;;;17.49;100.00
3590;BME280;1809;48.470;9.226;2022-08-01T02:34:09;96977.88;;;17.46;100.00
3590;BME280;1809;48.470;9.226;2022-08-01T02:36:38;96973.13;;;17.43;100.00
3590;BME280;1809;48.470;9.226;2022-08-01T02:39:09;96978.06;;;17.41;100.00
3590;BME280;1809;48.470;9.226;2022-08-01T02:41:40;96975.03;;;17.42;100.00
3590;BME280;1809;48.470;9.226;2022-08-01T02:44:09;96979.38;;;17.35;100.00
3590;BME280;1809;48.470;9.226;2022-08-01T02:46:39;96978.72;;;17.38;100.00
3590;BME280;1809;48.470;9.226;2022-08-01T02:49:07;96979.38;;;17.35;100.00
3590;BME280;1809;48.470;9.226;2022-08-01T02:51:35;96977.63;;;17.39;100.00
3590;BME280;1809;48.470;9.226;2022-08-01T02:54:02;96973.31;;;17.38;100.00
3590;BME280;1809;48.470;9.226;2022-08-01T02:56:31;96974.91;;;17.39;100.00
3590;BME280;1809;48.470;9.226;2022-08-01T02:59:07;96974.47;;;17.37;100.00
3590;BME280;1809;48.470;9.226;2022-08-01T03:01:35;96966.53;;;17.32;100.00
3590;BME280;1809;48.470;9.226;2022-08-01T03:04:02;96972.72;;;17.32;100.00
3590;BME280;1809;48.470;9.226;2022-08-01T03:06:29;96972.22;;;17.39;100.00
3590;BME280;1809;48.470;9.226;2022-08-01T03:08:55;96975.31;;;17.29;100.00
3590;BME280;1809;48.470;9.226;2022-08-01T03:11:22;96973.75;;;17.28;100.00
3590;BME280;1809;48.470;9.226;2022-08-01T03:13:50;96966.81;;;17.18;100.00
3590;BME280;1809;48.470;9.226;2022-08-01T03:16:17;96977.28;;;17.19;100.00
3590;BME280;1809;48.470;9.226;2022-08-01T03:18:44;96975.72;;;17.18;100.00
3590;BME280;1809;48.470;9.226;2022-08-01T03:21:11;96970.75;;;17.20;100.00
3590;BME280;1809;48.470;9.226;2022-08-01T03:23:38;96976.03;;;17.17;100.00
3590;BME280;1809;48.470;9.226;2022-08-01T03:26:05;96982.69;;;17.19;100.00
3590;BME280;1809;48.470;9.226;2022-08-01T03:28:31;96976.09;;;17.08;100.00
3590;BME280;1809;48.470;9.226;2022-08-01T03:30:58;96979.91;;;17.07;100.00
3590;BME280;1809;48.470;9.226;2022-08-01T03:33:23;96979.25;;;17.10;100.00
3590;BME280;1809;48.470;9.226;2022-08-01T03:35:53;96983.88;;;17.10;100.00
3590;BME280;1809;48.470;9.226;2022-08-01T03:38:23;96973.59;;;17.03;100.00
3590;BME280;1809;48.470;9.226;2022-08-01T03:41:02;96975.16;;;17.04;100.00
3590;BME280;1809;48.470;9.226;2022-08-01T03:43:38;96973.47;;;17.00;100.00
3590;BME280;1809;48.470;9.226;2022-08-01T03:46:07;96975.69;;;16.98;100.00
3590;BME280;1809;48.470;9.226;2022-08-01T03:48:39;96979.25;;;17.10;100.00
3590;BME280;1809;48.470;9.226;2022-08-01T03:51:05;96980.56;;;17.04;100.00
3590;BME280;1809;48.470;9.226;2022-08-01T03:53:33;96981.22;;;17.01;100.00
3590;BME280;1809;48.470;9.226;2022-08-01T03:56:00;96976.81;;;16.97;100.00
3590;BME280;1809;48.470;9.226;2022-08-01T03:58:28;96980.94;;;16.94;100.00
3590;BME280;1809;48.470;9.226;2022-08-01T04:00:55;96980.69;;;16.87;100.00
3590;BME280;1809;48.470;9.226;2022-08-01T04:03:21;96982.00;;;16.81;100.00
3590;BME280;1809;48.470;9.226;2022-08-01T04:05:46;96985.63;;;16.85;100.00
3590;BME280;1809;48.470;9.226;2022-08-01T04:08:11;96979.75;;;16.83;100.00
3590;BME280;1809;48.470;9.226;2022-08-01T04:10:37;96983.28;;;16.75;100.00
3590;BME280;1809;48.470;9.226;2022-08-01T04:13:02;96988.31;;;16.85;100.00
3590;BME280;1809;48.470;9.226;2022-08-01T04:15:28;96989.91;;;16.86;100.00
3590;BME280;1809;48.470;9.226;2022-08-01T04:17:53;96989.91;;;16.86;100.00
3590;BME280;1809;48.470;9.226;2022-08-01T04:20:19;96995.97;;;16.83;100.00
3590;BME280;1809;48.470;9.226;2022-08-01T04:22:44;96992.81;;;16.81;100.00
3590;BME280;1809;48.470;9.226;2022-08-01T04:25:23;96995.97;;;16.83;100.00
3590;BME280;1809;48.470;9.226;2022-08-01T04:27:51;96991.25;;;17.01;100.00
3590;BME280;1809;48.470;9.226;2022-08-01T04:30:20;96996.19;;;16.99;100.00
3590;BME280;1809;48.470;9.226;2022-08-01T04:32:48;96999.84;;;17.03;100.00
3590;BME280;1809;48.470;9.226;2022-08-01T04:35:15;96992.84;;;17.02;100.00
3590;BME280;1809;48.470;9.226;2022-08-01T04:37:45;97008.06;;;17.06;100.00
3590;BME280;1809;48.470;9.226;2022-08-01T04:40:13;97001.53;;;17.07;100.00
3590;BME280;1809;48.470;9.226;2022-08-01T04:42:39;96995.47;;;17.10;100.00
3590;BME280;1809;48.470;9.226;2022-08-01T04:45:06;97003.06;;;17.17;100.00
3590;BME280;1809;48.470;9.226;2022-08-01T04:47:34;97009.94;;;17.14;100.00
3590;BME280;1809;48.470;9.226;2022-08-01T04:50:04;97009.72;;;17.19;100.00
3590;BME280;1809;48.470;9.226;2022-08-01T04:52:33;97019.22;;;17.26;100.00
3590;BME280;1809;48.470;9.226;2022-08-01T04:54:59;97018.56;;;17.29;100.00
3590;BME280;1809;48.470;9.226;2022-08-01T04:57:25;97022.50;;;17.31;100.00
3590;BME280;1809;48.470;9.226;2022-08-01T04:59:50;97021.97;;;17.38;100.00
3590;BME280;1809;48.470;9.226;2022-08-01T05:02:22;97021.47;;;17.44;100.00
3590;BME280;1809;48.470;9.226;2022-08-01T05:04:47;97022.97;;;17.54;100.00
3590;BME280;1809;48.470;9.226;2022-08-01T05:07:13;97012.25;;;17.66;100.00
3590;BME280;1809;48.470;9.226;2022-08-01T05:09:39;97021.63;;;18.01;100.00
3590;BME280;1809;48.470;9.226;2022-08-01T05:12:10;97023.59;;;18.70;100.00
3590;BME280;1809;48.470;9.226;2022-08-01T05:14:36;97015.06;;;19.72;100.00
3590;BME280;1809;48.470;9.226;2022-08-01T05:17:03;97016.38;;;21.12;100.00
3590;BME280;1809;48.470;9.226;2022-08-01T05:19:36;97019.63;;;22.32;100.00
3590;BME280;1809;48.470;9.226;2022-08-01T05:22:06;97014.66;;;23.92;100.00
3590;BME280;1809;48.470;9.226;2022-08-01T05:24:33;97019.25;;;25.60;100.00
3590;BME280;1809;48.470;9.226;2022-08-01T05:26:59;97023.16;;;27.02;100.00
3590;BME280;1809;48.470;9.226;2022-08-01T05:29:25;97019.69;;;28.27;100.00
3590;BME280;1809;48.470;9.226;2022-08-01T05:31:51;97017.59;;;29.00;100.00
3590;BME280;1809;48.470;9.226;2022-08-01T05:34:17;97020.59;;;29.20;100.00
3590;BME280;1809;48.470;9.226;2022-08-01T05:36:43;97023.03;;;28.52;100.00
3590;BME280;1809;48.470;9.226;2022-08-01T05:39:09;97023.13;;;27.48;100.00
3590;BME280;1809;48.470;9.226;2022-08-01T05:41:35;97018.41;;;26.56;100.00
3590;BME280;1809;48.470;9.226;2022-08-01T05:44:02;97021.50;;;25.47;100.00
3590;BME280;1809;48.470;9.226;2022-08-01T05:46:27;97022.38;;;25.00;100.00
3590;BME280;1809;48.470;9.226;2022-08-01T05:48:53;97022.13;;;24.28;100.00
3590;BME280;1809;48.470;9.226;2022-08-01T05:51:18;97014.34;;;23.97;100.00
3590;BME280;1809;48.470;9.226;2022-08-01T05:53:44;97014.38;;;24.04;100.00
3590;BME280;1809;48.470;9.226;2022-08-01T05:56:09;97022.34;;;24.16;100.00
3590;BME280;1809;48.470;9.226;2022-08-01T05:58:34;97020.41;;;24.57;100.00
3590;BME280;1809;48.470;9.226;2022-08-01T06:01:00;97017.44;;;25.20;100.00
3590;BME280;1809;48.470;9.226;2022-08-01T06:03:25;97011.91;;;25.75;100.00
3590;BME280;1809;48.470;9.226;2022-08-01T06:05:51;97028.56;;;26.24;100.00
3590;BME280;1809;48.470;9.226;2022-08-01T06:08:16;97019.19;;;27.31;100.00
3590;BME280;1809;48.470;9.226;2022-08-01T06:10:42;97023.84;;;27.69;100.00
3590;BME280;1809;48.470;9.226;2022-08-01T06:13:07;97022.03;;;28.28;100.00
3590;BME280;1809;48.470;9.226;2022-08-01T06:15:33;97021.75;;;28.71;100.00
3590;BME280;1809;48.470;9.226;2022-08-01T06:17:58;97020.41;;;28.93;100.00
3590;BME280;1809;48.470;9.226;2022-08-01T06:20:24;97018.56;;;28.83;100.00
3590;BME280;1809;48.470;9.226;2022-08-01T06:22:49;97023.13;;;28.97;100.00
3590;BME280;1809;48.470;9.226;2022-08-01T06:25:17;97016.56;;;29.31;100.00
3590;BME280;1809;48.470;9.226;2022-08-01T06:27:42;97019.53;;;29.07;100.00
3590;BME280;1809;48.470;9.226;2022-08-01T06:30:08;97022.94;;;29.18;100.00
3590;BME280;1809;48.470;9.226;2022-08-01T06:32:34;97023.63;;;28.85;100.00
3590;BME280;1809;48.470;9.226;2022-08-01T06:34:59;97027.50;;;28.32;100.00
3590;BME280;1809;48.470;9.226;2022-08-01T06:37:29;97015.84;;;28.14;100.00
3590;BME280;1809;48.470;9.226;2022-08-01T06:39:54;97007.25;;;27.91;100.00
3590;BME280;1809;48.470;9.226;2022-08-01T06:42:20;97007.59;;;28.07;100.00
3590;BME280;1809;48.470;9.226;2022-08-01T06:44:45;97016.38;;;28.50;100.00
3590;BME280;1809;48.470;9.226;2022-08-01T06:47:11;97015.38;;;28.85;100.00
3590;BME280;1809;48.470;9.226;2022-08-01T06:49:36;97014.50;;;28.95;100.00
3590;BME280;1809;48.470;9.226;2022-08-01T06:52:02;97016.91;;;29.33;100.00
3590;BME280;1809;48.470;9.226;2022-08-01T06:54:28;97016.47;;;29.42;100.00
3590;BME280;1809;48.470;9.226;2022-08-01T06:56:54;97020.16;;;29.62;100.00
3590;BME280;1809;48.470;9.226;2022-08-01T06:59:19;97017.44;;;29.59;100.00
3590;BME280;1809;48.470;9.226;2022-08-01T07:01:45;97006.91;;;29.88;100.00
3590;BME280;1809;48.470;9.226;2022-08-01T07:04:10;97006.44;;;29.55;100.00
3590;BME280;1809;48.470;9.226;2022-08-01T07:06:35;97010.97;;;29.39;100.00
3590;BME280;1809;48.470;9.226;2022-08-01T07:09:01;97005.06;;;29.74;100.00
3590;BME280;1809;48.470;9.226;2022-08-01T07:11:27;97002.22;;;29.84;100.00
3590;BME280;1809;48.470;9.226;2022-08-01T07:13:52;97008.09;;;29.86;100.00
3590;BME280;1809;48.470;9.226;2022-08-01T07:16:17;97002.72;;;30.33;100.00
3590;BME280;1809;48.470;9.226;2022-08-01T07:18:43;97022.81;;;31.14;100.00
3590;BME280;1809;48.470;9.226;2022-08-01T07:21:08;97005.94;;;30.58;100.00
3590;BME280;1809;48.470;9.226;2022-08-01T07:23:37;97010.88;;;30.17;100.00
3590;BME280;1809;48.470;9.226;2022-08-01T07:26:03;97010.78;;;30.77;100.00
3590;BME280;1809;48.470;9.226;2022-08-01T07:28:29;97012.38;;;31.25;100.00
3590;BME280;1809;48.470;9.226;2022-08-01T07:30:55;97010.75;;;31.27;100.00
3590;BME280;1809;48.470;9.226;2022-08-01T07:33:20;97009.81;;;30.87;100.00
3590;BME280;1809;48.470;9.226;2022-08-01T07:35:45;97013.44;;;31.54;100.00
3590;BME280;1809;48.470;9.226;2022-08-01T07:38:11;97006.53;;;30.46;100.00
3590;BME280;1809;48.470;9.226;2022-08-01T07:40:36;97008.41;;;30.53;100.00
3590;BME280;1809;48.470;9.226;2022-08-01T07:43:02;97009.03;;;30.87;100.00
3590;BME280;1809;48.470;9.226;2022-08-01T07:45:27;97002.28;;;31.15;100.00
3590;BME280;1809;48.470;9.226;2022-08-01T07:47:53;97001.25;;;31.05;100.00
3590;BME280;1809;48.470;9.226;2022-08-01T07:50:18;97003.31;;;30.74;100.00
3590;BME280;1809;48.470;9.226;2022-08-01T07:52:44;97009.84;;;31.34;100.00
3590;BME280;1809;48.470;9.226;2022-08-01T07:55:10;97000.13;;;31.03;100.00
3590;BME280;1809;48.470;9.226;2022-08-01T07:57:36;97003.78;;;30.16;100.00
3590;BME280;1809;48.470;9.226;2022-08-01T08:00:04;96998.16;;;29.18;100.00
3590;BME280;1809;48.470;9.226;2022-08-01T08:02:30;96998.38;;;28.38;100.00
3590;BME280;1809;48.470;9.226;2022-08-01T08:04:55;96995.53;;;27.80;100.00
3590;BME280;1809;48.470;9.226;2022-08-01T08:07:21;96998.03;;;27.14;100.00
3590;BME280;1809;48.470;9.226;2022-08-01T08:09:46;96994.94;;;26.84;100.00
3590;BME280;1809;48.470;9.226;2022-08-01T08:12:11;96994.91;;;26.73;100.00
3590;BME280;1809;48.470;9.226;2022-08-01T08:14:37;97000.38;;;26.41;100.00
3590;BME280;1809;48.470;9.226;2022-08-01T08:17:03;97002.34;;;26.69;100.00
3590;BME280;1809;48.470;9.226;2022-08-01T08:19:29;96993.28;;;26.26;100.00
3590;BME280;1809;48.470;9.226;2022-08-01T08:21:56;96991.75;;;26.43;100.00
3590;BME280;1809;48.470;9.226;2022-08-01T08:24:21;96992.53;;;26.54;100.00
3590;BME280;1809;48.470;9.226;2022-08-01T08:26:53;96989.41;;;26.48;100.00
3590;BME280;1809;48.470;9.226;2022-08-01T08:29:20;96992.47;;;26.15;100.00
3590;BME280;1809;48.470;9.226;2022-08-01T08:31:45;96989.34;;;26.20;100.00
3590;BME280;1809;48.470;9.226;2022-08-01T08:34:11;96996.38;;;26.14;100.00
3590;BME280;1809;48.470;9.226;2022-08-01T08:36:37;96992.91;;;26.28;100.00
3590;BME280;1809;48.470;9.226;2022-08-01T08:39:03;96989.34;;;26.20;100.00
3590;BME280;1809;48.470;9.226;2022-08-01T08:41:30;96989.38;;;26.31;100.00
3590;BME280;1809;48.470;9.226;2022-08-01T08:43:56;96990.16;;;26.31;100.00
3590;BME280;1809;48.470;9.226;2022-08-01T08:46:23;96989.38;;;26.34;100.00
3590;BME280;1809;48.470;9.226;2022-08-01T08:48:51;96997.97;;;26.22;100.00
3590;BME280;1809;48.470;9.226;2022-08-01T08:51:17;96989.31;;;26.13;100.00
3590;BME280;1809;48.470;9.226;2022-08-01T08:53:46;96998.72;;;26.12;100.00
3590;BME280;1809;48.470;9.226;2022-08-01T08:56:13;96987.06;;;26.40;100.00
3590;BME280;1809;48.470;9.226;2022-08-01T08:58:40;96995.66;;;26.28;100.00
3590;BME280;1809;48.470;9.226;2022-08-01T09:01:06;97005.03;;;26.37;100.00
3590;BME280;1809;48.470;9.226;2022-08-01T09:03:34;97005.88;;;26.48;100.00
3590;BME280;1809;48.470;9.226;2022-08-01T09:05:59;96994.91;;;26.69;100.00
3590;BME280;1809;48.470;9.226;2022-08-01T09:08:24;97000.44;;;26.80;100.00
3590;BME280;1809;48.470;9.226;2022-08-01T09:10:50;96994.53;;;26.96;100.00
3590;BME280;1809;48.470;9.226;2022-08-01T09:13:15;96999.22;;;27.06;100.00
3590;BME280;1809;48.470;9.226;2022-08-01T09:15:43;96992.13;;;27.15;100.00
3590;BME280;1809;48.470;9.226;2022-08-01T09:18:37;96998.00;;;27.35;100.00
3590;BME280;1809;48.470;9.226;2022-08-01T09:23:49;96990.13;;;27.58;100.00
3590;BME280;1809;48.470;9.226;2022-08-01T09:26:20;96995.63;;;27.58;100.00
3590;BME280;1809;48.470;9.226;2022-08-01T09:28:47;96990.06;;;27.72;100.00
3590;BME280;1809;48.470;9.226;2022-08-01T09:31:15;96990.72;;;27.98;100.00
3590;BME280;1809;48.470;9.226;2022-08-01T09:33:53;96986.22;;;27.38;100.00
3590;BME280;1809;48.470;9.226;2022-08-01T09:36:27;96996.41;;;27.38;100.00
3590;BME280;1809;48.470;9.226;2022-08-01T09:39:15;96988.97;;;27.27;100.00
3590;BME280;1809;48.470;9.226;2022-08-01T09:41:47;96989.75;;;27.42;100.00
3590;BME280;1809;48.470;9.226;2022-08-01T09:44:14;96992.91;;;27.44;100.00
3590;BME280;1809;48.470;9.226;2022-08-01T09:46:52;96989.34;;;27.40;100.00
3590;BME280;1809;48.470;9.226;2022-08-01T09:49:32;96988.19;;;27.31;100.00
3590;BME280;1809;48.470;9.226;2022-08-01T09:52:17;96984.72;;;27.05;100.00
3590;BME280;1809;48.470;9.226;2022-08-01T09:54:54;96983.09;;;27.33;100.00
3590;BME280;1809;48.470;9.226;2022-08-01T09:57:20;96971.69;;;27.55;100.00
3590;BME280;1809;48.470;9.226;2022-08-01T09:59:51;96979.88;;;27.69;100.00
3590;BME280;1809;48.470;9.226;2022-08-01T10:04:52;96970.22;;;28.20;100.00
3590;BME280;1809;48.470;9.226;2022-08-01T10:07:19;96967.34;;;28.38;100.00
3590;BME280;1809;48.470;9.226;2022-08-01T10:09:46;96964.66;;;28.27;100.00
3590;BME280;1809;48.470;9.226;2022-08-01T10:12:15;96961.47;;;28.36;100.00
3590;BME280;1809;48.470;9.226;2022-08-01T10:14:46;96957.22;;;28.79;100.00
3590;BME280;1809;48.470;9.226;2022-08-01T10:17:19;96954.94;;;28.70;100.00
3590;BME280;1809;48.470;9.226;2022-08-01T10:19:46;96955.66;;;28.74;100.00
3590;BME280;1809;48.470;9.226;2022-08-01T10:22:13;96947.00;;;28.79;100.00
3590;BME280;1809;48.470;9.226;2022-08-01T10:24:47;96943.72;;;28.92;100.00
3590;BME280;1809;48.470;9.226;2022-08-01T10:27:15;96940.31;;;29.14;100.00
3590;BME280;1809;48.470;9.226;2022-08-01T10:29:57;96941.13;;;29.15;100.00
3590;BME280;1809;48.470;9.226;2022-08-01T10:32:32;96934.28;;;29.30;100.00
3590;BME280;1809;48.470;9.226;2022-08-01T10:34:59;96932.59;;;29.40;100.00
3590;BME280;1809;48.470;9.226;2022-08-01T10:37:28;96931.19;;;29.58;100.00
3590;BME280;1809;48.470;9.226;2022-08-01T10:39:55;96929.16;;;29.32;100.00
3590;BME280;1809;48.470;9.226;2022-08-01T10:42:22;96928.31;;;29.69;100.00
3590;BME280;1809;48.470;9.226;2022-08-01T10:44:48;96925.13;;;29.40;100.00
3590;BME280;1809;48.470;9.226;2022-08-01T10:47:25;96934.69;;;29.32;100.00
3590;BME280;1809;48.470;9.226;2022-08-01T10:50:02;96927.13;;;28.99;100.00
3590;BME280;1809;48.470;9.226;2022-08-01T10:52:30;96928.56;;;28.73;100.00
3590;BME280;1809;48.470;9.226;2022-08-01T10:55:08;96930.59;;;28.58;100.00
3590;BME280;1809;48.470;9.226;2022-08-01T10:57:47;96930.94;;;28.16;100.00
3590;BME280;1809;48.470;9.226;2022-08-01T11:00:22;96929.00;;;28.02;100.00
3590;BME280;1809;48.470;9.226;2022-08-01T11:03:13;96931.03;;;27.95;100.00
3590;BME280;1809;48.470;9.226;2022-08-01T11:05:42;96924.72;;;28.01;100.00
3590;BME280;1809;48.470;9.226;2022-08-01T11:08:21;96921.38;;;28.31;100.00
3590;BME280;1809;48.470;9.226;2022-08-01T11:10:48;96928.25;;;28.60;100.00
3590;BME280;1809;48.470;9.226;2022-08-01T11:13:13;96928.66;;;28.55;100.00
3590;BME280;1809;48.470;9.226;2022-08-01T11:15:40;96926.09;;;28.86;100.00
3590;BME280;1809;48.470;9.226;2022-08-01T11:18:29;96916.81;;;29.44;100.00
3590;BME280;1809;48.470;9.226;2022-08-01T11:21:00;96918.50;;;30.25;100.00
3590;BME280;1809;48.470;9.226;2022-08-01T11:23:33;96914.22;;;30.47;100.00
3590;BME280;1809;48.470;9.226;2022-08-01T11:26:16;96916.72;;;30.38;100.00
3590;BME280;1809;48.470;9.226;2022-08-01T11:28:46;96926.41;;;30.23;100.00
3590;BME280;1809;48.470;9.226;2022-08-01T11:31:32;96915.72;;;30.52;100.00
3590;BME280;1809;48.470;9.226;2022-08-01T11:33:59;96924.84;;;30.22;100.00
3590;BME280;1809;48.470;9.226;2022-08-01T11:36:28;96917.06;;;29.56;100.00
3590;BME280;1809;48.470;9.226;2022-08-01T11:41:26;96917.59;;;28.62;100.00
3590;BME280;1809;48.470;9.226;2022-08-01T11:44:05;96915.03;;;28.89;100.00
3590;BME280;1809;48.470;9.226;2022-08-01T11:46:51;96909.22;;;28.80;100.00
3590;BME280;1809;48.470;9.226;2022-08-01T11:54:28;96907.94;;;28.40;100.00
3590;BME280;1809;48.470;9.226;2022-08-01T11:56:59;96905.09;;;28.54;100.00
3590;BME280;1809;48.470;9.226;2022-08-01T11:59:25;96905.50;;;28.49;100.00
3590;BME280;1809;48.470;9.226;2022-08-01T12:01:51;96902.53;;;28.33;100.00
3590;BME280;1809;48.470;9.226;2022-08-01T12:04:17;96904.88;;;28.31;100.00
3590;BME280;1809;48.470;9.226;2022-08-01T12:06:43;96909.53;;;27.79;100.00
3590;BME280;1809;48.470;9.226;2022-08-01T12:09:22;96910.00;;;27.63;100.00
3590;BME280;1809;48.470;9.226;2022-08-01T12:11:48;96899.84;;;27.53;100.00
3590;BME280;1809;48.470;9.226;2022-08-01T12:14:21;96897.53;;;27.34;100.00
3590;BME280;1809;48.470;9.226;2022-08-01T12:16:52;96898.38;;;27.24;100.00
3590;BME280;1809;48.470;9.226;2022-08-01T12:19:34;96896.81;;;27.09;100.00
3590;BME280;1809;48.470;9.226;2022-08-01T12:22:14;96892.91;;;27.17;100.00
3590;BME280;1809;48.470;9.226;2022-08-01T12:24:41;96887.78;;;27.12;100.00
3590;BME280;1809;48.470;9.226;2022-08-01T12:27:10;96880.03;;;26.93;100.00
3590;BME280;1809;48.470;9.226;2022-08-01T12:29:42;96881.94;;;27.06;100.00
3590;BME280;1809;48.470;9.226;2022-08-01T12:32:47;96889.78;;;27.15;100.00
3590;BME280;1809;48.470;9.226;2022-08-01T12:37:44;96878.78;;;27.98;100.00
3590;BME280;1809;48.470;9.226;2022-08-01T12:40:18;96885.53;;;28.45;100.00
3590;BME280;1809;48.470;9.226;2022-08-01T12:42:58;96883.97;;;28.41;100.00
3590;BME280;1809;48.470;9.226;2022-08-01T12:45:46;96884.31;;;28.46;100.00
3590;BME280;1809;48.470;9.226;2022-08-01T12:48:16;96883.56;;;28.46;100.00
3590;BME280;1809;48.470;9.226;2022-08-01T12:50:51;96878.28;;;28.17;100.00
3590;BME280;1809;48.470;9.226;2022-08-01T12:53:21;96882.06;;;28.34;100.00
3590;BME280;1809;48.470;9.226;2022-08-01T12:55:53;96871.69;;;28.52;100.00
3590;BME280;1809;48.470;9.226;2022-08-01T12:58:20;96880.97;;;28.72;100.00
3590;BME280;1809;48.470;9.226;2022-08-01T13:00:50;96870.81;;;28.62;100.00
3590;BME280;1809;48.470;9.226;2022-08-01T13:03:26;96865.28;;;28.62;100.00
3590;BME280;1809;48.470;9.226;2022-08-01T13:05:57;96866.97;;;28.49;100.00
3590;BME280;1809;48.470;9.226;2022-08-01T13:08:24;96864.75;;;28.37;100.00
3590;BME280;1809;48.470;9.226;2022-08-01T13:10:50;96871.00;;;28.41;100.00
3590;BME280;1809;48.470;9.226;2022-08-01T13:13:24;96867.88;;;28.39;100.00
3590;BME280;1809;48.470;9.226;2022-08-01T13:16:02;96864.13;;;28.15;100.00
3590;BME280;1809;48.470;9.226;2022-08-01T13:18:31;96866.97;;;28.49;100.00
3590;BME280;1809;48.470;9.226;2022-08-01T13:21:11;96858.38;;;28.88;100.00
3590;BME280;1809;48.470;9.226;2022-08-01T13:23:38;96860.34;;;28.88;100.00
3590;BME280;1809;48.470;9.226;2022-08-01T13:26:04;96856.75;;;28.94;100.00
3590;BME280;1809;48.470;9.226;2022-08-01T13:28:30;96856.38;;;28.92;100.00
3590;BME280;1809;48.470;9.226;2022-08-01T13:31:05;96859.50;;;28.94;100.00
3590;BME280;1809;48.470;9.226;2022-08-01T13:34:00;96848.44;;;28.98;100.00
3590;BME280;1809;48.470;9.226;2022-08-01T13:36:26;96841.06;;;29.25;100.00
3590;BME280;1809;48.470;9.226;2022-08-01T13:38:55;96841.09;;;29.52;100.00
3590;BME280;1809;48.470;9.226;2022-08-01T13:41:39;96842.06;;;29.68;100.00
3590;BME280;1809;48.470;9.226;2022-08-01T13:44:05;96841.97;;;30.02;100.00
3590;BME280;1809;48.470;9.226;2022-08-01T13:46:31;96852.94;;;29.82;100.00
3590;BME280;1809;48.470;9.226;2022-08-01T13:48:56;96851.38;;;29.78;100.00
3590;BME280;1809;48.470;9.226;2022-08-01T13:51:22;96847.66;;;29.61;100.00